Time;durP1;ratioP1;P1;durP2;ratioP2;P2;SDS_P1;SDS_P2;PMS_P1;PMS_P2;Temp;Humidity;BMP_temperature;BMP_pressure;BME280_temperature;BME280_humidity;BME280_pressure;Samples;Min_cycle;Max_cycle;Signal;HPM_P1;HPM_P2
2022/01/29 00:01:39;;;;;;;;;;;6.30;83.60;;;;;;5014011;28;19943;-78
2022/01/29 00:04:04;;;;;;;;;;;6.20;83.80;;;;;;5020791;28;19918;-78
2022/01/29 00:06:30;;;;;;;;;;;6.30;83.90;;;;;;5020116;28;20418;-81
2022/01/29 00:08:57;;;;;;;;;;;6.40;83.50;;;;;;5010223;28;19940;-79
2022/01/29 00:11:27;;;;;;;;;;;6.40;83.30;;;;;;5009748;28;19914;-81
2022/01/29 00:13:53;;;;;;;;;;;6.40;83.50;;;;;;5010460;28;19929;-79
2022/01/29 00:16:18;;;;;;;;;;;6.40;83.40;;;;;;5007567;28;20419;-78
2022/01/29 00:18:44;;;;;;;;;;;6.40;83.40;;;;;;5006415;28;19921;-80
2022/01/29 00:21:09;;;;;;;;;;;6.40;83.40;;;;;;5021242;28;19921;-80
2022/01/29 00:23:35;;;;;;;;;;;6.40;83.50;;;;;;5014757;28;19951;-79
2022/01/29 00:26:00;;;;;;;;;;;6.50;83.00;;;;;;5013171;28;20430;-79
2022/01/29 00:28:27;;;;;;;;;;;6.50;83.10;;;;;;5009897;28;20304;-79
2022/01/29 00:30:52;;;;;;;;;;;6.50;83.00;;;;;;5011581;28;19917;-81
2022/01/29 00:33:18;;;;;;;;;;;6.60;82.90;;;;;;5023987;28;19928;-81
2022/01/29 00:35:43;;;;;;;;;;;6.50;83.30;;;;;;5009841;28;20291;-79
2022/01/29 00:38:09;;;;;;;;;;;6.50;83.60;;;;;;5010176;28;19913;-81
2022/01/29 00:40:36;;;;;;;;;;;6.50;83.20;;;;;;5009700;28;20376;-80
2022/01/29 00:43:02;;;;;;;;;;;6.50;83.40;;;;;;5009427;28;19940;-82
2022/01/29 00:45:27;;;;;;;;;;;6.50;83.40;;;;;;5012942;28;19963;-78
2022/01/29 00:47:53;;;;;;;;;;;6.40;83.60;;;;;;5021810;28;20412;-80
2022/01/29 00:50:19;;;;;;;;;;;6.50;83.70;;;;;;5011362;28;19973;-78
2022/01/29 00:52:44;;;;;;;;;;;6.40;83.90;;;;;;5009516;28;20303;-80
2022/01/29 00:55:10;;;;;;;;;;;6.50;84.20;;;;;;5010809;28;20012;-79
2022/01/29 00:57:38;;;;;;;;;;;6.50;84.20;;;;;;5019060;28;20462;-78
2022/01/29 01:00:05;;;;;;;;;;;6.50;84.40;;;;;;5011533;28;19940;-78
2022/01/29 01:02:31;;;;;;;;;;;6.50;84.20;;;;;;5010303;28;19925;-79
2022/01/29 01:04:56;;;;;;;;;;;6.60;84.00;;;;;;5010103;28;19914;-78
2022/01/29 01:07:22;;;;;;;;;;;6.50;84.10;;;;;;5007721;28;19913;-79
2022/01/29 01:09:47;;;;;;;;;;;6.50;84.20;;;;;;5013370;28;19952;-80
2022/01/29 01:12:13;;;;;;;;;;;6.50;84.50;;;;;;5014237;28;19914;-78
2022/01/29 01:14:38;;;;;;;;;;;6.50;84.60;;;;;;5012679;28;19913;-79
2022/01/29 01:17:04;;;;;;;;;;;6.60;84.20;;;;;;5011559;28;19925;-79
2022/01/29 01:19:30;;;;;;;;;;;6.60;84.10;;;;;;5012168;28;20431;-79
2022/01/29 01:21:56;;;;;;;;;;;6.60;83.90;;;;;;5012116;28;19925;-79
2022/01/29 01:24:22;;;;;;;;;;;6.60;84.40;;;;;;5012883;28;20012;-79
2022/01/29 01:26:48;;;;;;;;;;;6.60;84.20;;;;;;5019031;28;19939;-79
2022/01/29 01:29:13;;;;;;;;;;;6.60;84.30;;;;;;5018991;28;19933;-80
2022/01/29 01:31:39;;;;;;;;;;;6.60;84.20;;;;;;5012731;28;20104;-79
2022/01/29 01:34:06;;;;;;;;;;;6.60;84.30;;;;;;5014591;28;20269;-79
2022/01/29 01:36:34;;;;;;;;;;;6.60;84.50;;;;;;5020237;28;19918;-80
2022/01/29 01:39:05;;;;;;;;;;;6.50;84.90;;;;;;5013598;28;19918;-80
2022/01/29 01:41:37;;;;;;;;;;;6.50;85.00;;;;;;5013889;28;20013;-79
2022/01/29 01:44:03;;;;;;;;;;;6.50;85.20;;;;;;5019928;28;19924;-80
2022/01/29 01:46:28;;;;;;;;;;;6.60;85.30;;;;;;5011584;28;19921;-79
2022/01/29 01:48:54;;;;;;;;;;;6.60;85.20;;;;;;5011731;28;20064;-80
2022/01/29 01:51:20;;;;;;;;;;;6.50;85.30;;;;;;5014043;28;19925;-79
2022/01/29 01:53:45;;;;;;;;;;;6.50;85.20;;;;;;5014464;28;19913;-80
2022/01/29 01:56:11;;;;;;;;;;;6.60;85.10;;;;;;5013527;28;19918;-79
2022/01/29 01:58:36;;;;;;;;;;;6.60;85.30;;;;;;5014818;28;19921;-80
2022/01/29 02:01:02;;;;;;;;;;;6.60;85.30;;;;;;5021476;28;19925;-81
2022/01/29 02:03:27;;;;;;;;;;;6.60;85.10;;;;;;5013307;28;19914;-80
2022/01/29 02:05:53;;;;;;;;;;;6.50;85.60;;;;;;5011595;28;19924;-80
2022/01/29 02:08:20;;;;;;;;;;;6.60;85.40;;;;;;5012334;28;20359;-80
2022/01/29 02:10:47;;;;;;;;;;;6.60;85.30;;;;;;5012740;28;19914;-80
2022/01/29 02:13:13;;;;;;;;;;;6.60;85.40;;;;;;5013735;28;19913;-80
2022/01/29 02:15:38;;;;;;;;;;;6.60;85.70;;;;;;5011362;28;20434;-80
2022/01/29 02:18:05;;;;;;;;;;;6.60;85.50;;;;;;5010976;28;19932;-80
2022/01/29 02:20:31;;;;;;;;;;;6.60;85.80;;;;;;5011936;28;19948;-79
2022/01/29 02:22:57;;;;;;;;;;;6.60;85.60;;;;;;5014765;28;19964;-79
2022/01/29 02:25:29;;;;;;;;;;;6.70;85.80;;;;;;5025603;28;19952;-79
2022/01/29 02:27:55;;;;;;;;;;;6.80;85.70;;;;;;5023840;28;19928;-78
2022/01/29 02:30:20;;;;;;;;;;;6.70;86.00;;;;;;5014806;28;19918;-80
2022/01/29 02:32:46;;;;;;;;;;;6.70;86.00;;;;;;5009404;28;19913;-80
2022/01/29 02:35:11;;;;;;;;;;;6.70;86.20;;;;;;5011422;28;19920;-78
2022/01/29 02:37:37;;;;;;;;;;;6.70;86.20;;;;;;5013672;28;19917;-80
2022/01/29 02:40:02;;;;;;;;;;;6.70;86.20;;;;;;5012401;28;19913;-79
2022/01/29 02:42:28;;;;;;;;;;;6.60;86.30;;;;;;5024039;28;20373;-79
2022/01/29 02:44:53;;;;;;;;;;;6.70;86.10;;;;;;5019399;28;19914;-80
2022/01/29 02:47:31;;;;;;;;;;;6.70;86.20;;;;;;5009622;28;19929;-79
2022/01/29 02:49:57;;;;;;;;;;;6.70;86.10;;;;;;5010755;28;19953;-79
2022/01/29 02:52:22;;;;;;;;;;;6.60;86.20;;;;;;5009992;28;19921;-79
2022/01/29 02:54:47;;;;;;;;;;;6.60;86.50;;;;;;5014347;28;19987;-80
2022/01/29 02:57:13;;;;;;;;;;;6.70;86.50;;;;;;5012446;28;19923;-79
2022/01/29 02:59:39;;;;;;;;;;;6.60;86.70;;;;;;5010663;28;20012;-80
2022/01/29 03:02:04;;;;;;;;;;;6.60;87.20;;;;;;5016422;28;20009;-79
2022/01/29 03:04:30;;;;;;;;;;;6.60;87.30;;;;;;5017655;28;19913;-80
2022/01/29 03:06:55;;;;;;;;;;;6.70;87.30;;;;;;5013985;28;19913;-80
2022/01/29 03:09:20;;;;;;;;;;;6.60;87.30;;;;;;5012728;28;20527;-80
2022/01/29 03:11:46;;;;;;;;;;;6.70;87.00;;;;;;5011169;28;19940;-80
2022/01/29 03:14:11;;;;;;;;;;;6.60;87.20;;;;;;5015872;28;19968;-80
2022/01/29 03:16:37;;;;;;;;;;;6.60;87.20;;;;;;5021113;28;20017;-79
2022/01/29 03:19:02;;;;;;;;;;;6.70;87.30;;;;;;5012150;28;19913;-79
2022/01/29 03:21:28;;;;;;;;;;;6.60;87.30;;;;;;5011883;28;19914;-80
2022/01/29 03:23:53;;;;;;;;;;;6.60;87.30;;;;;;5011295;28;20376;-80
2022/01/29 03:26:19;;;;;;;;;;;6.60;87.50;;;;;;5009759;28;19928;-79
2022/01/29 03:28:45;;;;;;;;;;;6.50;87.50;;;;;;5011869;28;19913;-79
2022/01/29 03:31:10;;;;;;;;;;;6.70;87.60;;;;;;5007105;28;19921;-80
2022/01/29 03:33:36;;;;;;;;;;;6.60;87.40;;;;;;5008123;28;19976;-80
2022/01/29 03:36:02;;;;;;;;;;;6.50;87.90;;;;;;5014843;28;19918;-80
2022/01/29 03:38:27;;;;;;;;;;;6.50;88.10;;;;;;5009836;28;19913;-78
2022/01/29 03:40:55;;;;;;;;;;;6.60;88.10;;;;;;5009428;28;19917;-80
2022/01/29 03:43:31;;;;;;;;;;;6.50;88.00;;;;;;5009971;28;19914;-80
2022/01/29 03:45:57;;;;;;;;;;;6.60;88.20;;;;;;5009182;28;19917;-80
2022/01/29 03:48:23;;;;;;;;;;;6.60;88.10;;;;;;5010988;28;19932;-79
2022/01/29 03:50:48;;;;;;;;;;;6.60;88.00;;;;;;5010840;28;19921;-79
2022/01/29 03:53:13;;;;;;;;;;;6.50;87.90;;;;;;5009821;28;19968;-80
2022/01/29 03:55:39;;;;;;;;;;;6.50;88.00;;;;;;5011042;28;20287;-80
2022/01/29 03:58:05;;;;;;;;;;;6.50;88.10;;;;;;5007264;28;19913;-80
2022/01/29 04:00:30;;;;;;;;;;;6.60;88.20;;;;;;5007183;28;19913;-78
2022/01/29 04:02:55;;;;;;;;;;;6.60;88.10;;;;;;5010111;28;19956;-80
2022/01/29 04:05:21;;;;;;;;;;;6.50;88.50;;;;;;5012551;28;19993;-79
2022/01/29 04:07:46;;;;;;;;;;;6.50;88.90;;;;;;5026480;28;19920;-79
2022/01/29 04:10:12;;;;;;;;;;;6.50;88.80;;;;;;5011092;28;20361;-79
2022/01/29 04:12:43;;;;;;;;;;;6.50;88.90;;;;;;5011405;28;19921;-79
2022/01/29 04:15:09;;;;;;;;;;;6.50;89.10;;;;;;5019438;28;19920;-80
2022/01/29 04:17:34;;;;;;;;;;;6.40;89.30;;;;;;5005811;28;19918;-80
2022/01/29 04:20:00;;;;;;;;;;;6.50;89.60;;;;;;5009597;28;19956;-80
2022/01/29 04:22:25;;;;;;;;;;;6.50;89.70;;;;;;5007717;28;19914;-77
2022/01/29 04:24:50;;;;;;;;;;;6.50;89.50;;;;;;5013594;28;19968;-79
2022/01/29 04:27:20;;;;;;;;;;;6.50;89.70;;;;;;5010218;28;19953;-80
2022/01/29 04:29:54;;;;;;;;;;;6.50;89.90;;;;;;5016269;28;19929;-80
2022/01/29 04:32:26;;;;;;;;;;;6.50;89.80;;;;;;5013539;28;19945;-78
2022/01/29 04:34:52;;;;;;;;;;;6.50;90.20;;;;;;5011935;28;19913;-80
2022/01/29 04:37:17;;;;;;;;;;;6.40;90.40;;;;;;5017807;28;19917;-79
2022/01/29 04:39:42;;;;;;;;;;;6.50;90.30;;;;;;5009939;28;19914;-80
2022/01/29 04:42:08;;;;;;;;;;;6.50;90.30;;;;;;5011690;28;19918;-80
2022/01/29 04:44:33;;;;;;;;;;;6.60;90.40;;;;;;5024495;28;19920;-77
2022/01/29 04:46:59;;;;;;;;;;;6.50;90.30;;;;;;5022281;28;19965;-79
2022/01/29 04:49:24;;;;;;;;;;;6.50;90.50;;;;;;5017268;28;19917;-80
2022/01/29 04:51:50;;;;;;;;;;;6.60;90.50;;;;;;5015897;28;20380;-78
2022/01/29 04:54:15;;;;;;;;;;;6.60;90.30;;;;;;5014488;28;19914;-80
2022/01/29 04:56:40;;;;;;;;;;;6.50;90.40;;;;;;5026600;28;20032;-77
2022/01/29 04:59:06;;;;;;;;;;;6.50;90.60;;;;;;5016003;28;19925;-79
2022/01/29 05:01:31;;;;;;;;;;;6.60;90.40;;;;;;5014491;28;19914;-80
2022/01/29 05:03:57;;;;;;;;;;;6.60;90.50;;;;;;5018191;28;19913;-79
2022/01/29 05:06:22;;;;;;;;;;;6.60;90.50;;;;;;5016828;28;19993;-78
2022/01/29 05:08:48;;;;;;;;;;;6.60;90.40;;;;;;5011318;28;19913;-79
2022/01/29 05:11:15;;;;;;;;;;;6.60;90.60;;;;;;5014139;28;20406;-78
2022/01/29 05:13:42;;;;;;;;;;;6.50;90.80;;;;;;5011841;28;20399;-77
2022/01/29 05:29:19;;;;;;;;;;;6.60;90.80;;;;;;5013368;28;19917;-77
2022/01/29 05:31:45;;;;;;;;;;;6.70;90.70;;;;;;5011247;28;20303;-77
2022/01/29 05:34:11;;;;;;;;;;;6.60;90.60;;;;;;5010915;28;19913;-79
2022/01/29 05:36:36;;;;;;;;;;;6.60;90.70;;;;;;5013346;28;19961;-77
2022/01/29 05:39:02;;;;;;;;;;;6.70;90.70;;;;;;5010580;28;19983;-77
2022/01/29 05:41:28;;;;;;;;;;;6.70;90.60;;;;;;5011340;28;19917;-78
2022/01/29 05:43:54;;;;;;;;;;;6.60;90.60;;;;;;5012827;28;19917;-77
2022/01/29 05:46:20;;;;;;;;;;;6.60;90.70;;;;;;5010153;28;19917;-77
2022/01/29 05:48:45;;;;;;;;;;;6.70;90.80;;;;;;5014228;28;19963;-79
2022/01/29 05:51:11;;;;;;;;;;;6.70;90.70;;;;;;5014059;28;20035;-79
2022/01/29 05:53:36;;;;;;;;;;;6.70;90.70;;;;;;5013463;28;19920;-79
2022/01/29 05:56:02;;;;;;;;;;;6.70;90.60;;;;;;5012315;28;19928;-78
2022/01/29 05:58:27;;;;;;;;;;;6.60;90.60;;;;;;5013411;28;19914;-79
2022/01/29 06:00:53;;;;;;;;;;;6.70;90.90;;;;;;5011725;28;19917;-79
2022/01/29 06:03:19;;;;;;;;;;;6.70;90.80;;;;;;5014108;28;19923;-78
2022/01/29 06:05:44;;;;;;;;;;;6.70;90.90;;;;;;5012240;28;20073;-77
2022/01/29 06:08:10;;;;;;;;;;;6.70;91.10;;;;;;5010931;28;19922;-79
2022/01/29 06:10:35;;;;;;;;;;;6.70;90.80;;;;;;5025568;28;19914;-78
2022/01/29 06:13:05;;;;;;;;;;;6.70;90.90;;;;;;5016860;28;19973;-79
2022/01/29 06:15:35;;;;;;;;;;;6.80;90.80;;;;;;5013265;28;20388;-79
2022/01/29 06:18:01;;;;;;;;;;;6.80;90.80;;;;;;5005587;28;19959;-79
2022/01/29 06:20:26;;;;;;;;;;;6.90;90.80;;;;;;5011803;28;19918;-78
2022/01/29 06:22:52;;;;;;;;;;;6.80;90.60;;;;;;5010907;28;19937;-78
2022/01/29 06:25:17;;;;;;;;;;;6.70;91.10;;;;;;5012067;28;19959;-78
2022/01/29 06:27:43;;;;;;;;;;;6.80;91.10;;;;;;5014289;28;20089;-79
2022/01/29 06:30:08;;;;;;;;;;;6.90;90.90;;;;;;5012897;28;20410;-79
2022/01/29 06:32:34;;;;;;;;;;;6.90;90.80;;;;;;5022951;28;19933;-79
2022/01/29 06:34:59;;;;;;;;;;;6.80;91.20;;;;;;5010147;28;19941;-78
2022/01/29 06:37:25;;;;;;;;;;;6.90;90.90;;;;;;5012085;28;19936;-78
2022/01/29 06:39:50;;;;;;;;;;;7.00;91.00;;;;;;5011148;28;19914;-79
2022/01/29 06:42:15;;;;;;;;;;;6.90;90.80;;;;;;5024198;28;19921;-77
2022/01/29 06:44:41;;;;;;;;;;;6.90;91.00;;;;;;5012070;28;20348;-79
2022/01/29 06:47:06;;;;;;;;;;;6.90;91.10;;;;;;5005794;28;19920;-79
2022/01/29 06:49:32;;;;;;;;;;;6.90;91.10;;;;;;5005195;28;19956;-78
2022/01/29 06:51:57;;;;;;;;;;;6.90;91.20;;;;;;5010663;28;19921;-79
2022/01/29 06:54:23;;;;;;;;;;;6.90;91.20;;;;;;5010960;28;19920;-78
2022/01/29 06:56:48;;;;;;;;;;;6.90;91.20;;;;;;5012728;28;19918;-78
2022/01/29 06:59:14;;;;;;;;;;;6.90;91.20;;;;;;5011669;28;19922;-80
2022/01/29 07:01:39;;;;;;;;;;;6.90;91.40;;;;;;5021482;28;20016;-79
2022/01/29 07:04:05;;;;;;;;;;;6.90;91.50;;;;;;5009587;28;19921;-78
2022/01/29 07:06:30;;;;;;;;;;;6.90;91.30;;;;;;5011470;28;19987;-78
2022/01/29 07:08:57;;;;;;;;;;;6.90;91.40;;;;;;5009998;28;19940;-79
2022/01/29 07:11:23;;;;;;;;;;;6.90;91.50;;;;;;5007930;28;19986;-78
2022/01/29 07:13:51;;;;;;;;;;;6.90;91.60;;;;;;5011038;28;19921;-77
2022/01/29 07:16:17;;;;;;;;;;;6.90;91.60;;;;;;5008596;28;20268;-78
2022/01/29 07:18:42;;;;;;;;;;;7.00;91.60;;;;;;5007276;28;19932;-79
2022/01/29 07:21:08;;;;;;;;;;;7.00;91.50;;;;;;5008760;28;20316;-80
2022/01/29 07:23:34;;;;;;;;;;;7.00;91.60;;;;;;5009996;28;19995;-79
2022/01/29 07:25:59;;;;;;;;;;;7.00;91.50;;;;;;5012001;28;19953;-79
2022/01/29 07:28:25;;;;;;;;;;;7.00;91.40;;;;;;5019508;28;19971;-81
2022/01/29 07:30:50;;;;;;;;;;;7.10;91.40;;;;;;5009581;28;19921;-81
2022/01/29 07:33:16;;;;;;;;;;;7.00;91.40;;;;;;5011181;28;19913;-80
2022/01/29 07:35:41;;;;;;;;;;;7.10;91.60;;;;;;5012226;28;19917;-80
2022/01/29 07:38:07;;;;;;;;;;;7.10;91.60;;;;;;5016670;28;19913;-81
2022/01/29 07:40:32;;;;;;;;;;;7.10;91.50;;;;;;5020655;28;19913;-81
2022/01/29 07:42:57;;;;;;;;;;;7.20;91.50;;;;;;5006850;28;20020;-79
2022/01/29 07:45:23;;;;;;;;;;;7.20;91.50;;;;;;5012598;28;20573;-79
2022/01/29 07:47:48;;;;;;;;;;;7.20;91.50;;;;;;5010628;28;20430;-80
2022/01/29 07:50:14;;;;;;;;;;;7.30;91.50;;;;;;5008636;28;19922;-80
2022/01/29 07:52:39;;;;;;;;;;;7.30;91.40;;;;;;5010386;28;20515;-80
2022/01/29 07:55:05;;;;;;;;;;;7.30;91.40;;;;;;5009227;28;19914;-80
2022/01/29 07:57:30;;;;;;;;;;;7.20;91.60;;;;;;5008508;28;19921;-81
2022/01/29 07:59:56;;;;;;;;;;;7.10;91.70;;;;;;5006995;28;19921;-80
2022/01/29 08:02:21;;;;;;;;;;;7.10;91.80;;;;;;5005474;28;19921;-81
2022/01/29 08:04:47;;;;;;;;;;;7.20;91.90;;;;;;5034266;28;19914;-79
2022/01/29 08:07:12;;;;;;;;;;;7.20;92.00;;;;;;5007993;28;20331;-81
2022/01/29 08:09:37;;;;;;;;;;;7.30;92.00;;;;;;5010326;28;20304;-80
2022/01/29 08:12:03;;;;;;;;;;;7.30;91.80;;;;;;5010329;28;20296;-79
2022/01/29 08:14:29;;;;;;;;;;;7.30;91.90;;;;;;5025890;28;19992;-81
2022/01/29 08:16:54;;;;;;;;;;;7.30;91.90;;;;;;5023220;28;19921;-78
2022/01/29 08:19:20;;;;;;;;;;;7.40;91.90;;;;;;5012458;28;19964;-80
2022/01/29 08:21:45;;;;;;;;;;;7.40;91.80;;;;;;5006525;28;19914;-80
2022/01/29 08:24:11;;;;;;;;;;;7.40;91.80;;;;;;5004706;28;19972;-81
2022/01/29 08:26:37;;;;;;;;;;;7.30;92.00;;;;;;5007448;28;19914;-81
2022/01/29 08:29:02;;;;;;;;;;;7.40;92.00;;;;;;5009603;28;19994;-82
2022/01/29 08:31:28;;;;;;;;;;;7.40;92.00;;;;;;5005670;28;19921;-80
2022/01/29 08:33:53;;;;;;;;;;;7.40;91.90;;;;;;5005273;28;19917;-81
2022/01/29 08:36:20;;;;;;;;;;;7.40;92.00;;;;;;5002707;28;19967;-81
2022/01/29 08:38:45;;;;;;;;;;;7.50;92.10;;;;;;5011939;28;19914;-82
2022/01/29 08:41:11;;;;;;;;;;;7.50;91.80;;;;;;5011570;28;19932;-83
2022/01/29 08:43:36;;;;;;;;;;;7.50;91.90;;;;;;5010752;28;20307;-82
2022/01/29 08:46:02;;;;;;;;;;;7.50;91.90;;;;;;5007573;28;20023;-83
2022/01/29 08:48:27;;;;;;;;;;;7.50;92.00;;;;;;5007108;28;20657;-83
2022/01/29 08:50:53;;;;;;;;;;;7.50;91.80;;;;;;5010270;28;20873;-82
2022/01/29 08:53:19;;;;;;;;;;;7.50;92.00;;;;;;5024483;28;20009;-83
2022/01/29 08:55:44;;;;;;;;;;;7.60;91.90;;;;;;5022312;28;19956;-81
2022/01/29 08:58:10;;;;;;;;;;;7.60;91.90;;;;;;5026570;28;19953;-82
2022/01/29 09:00:37;;;;;;;;;;;7.60;91.80;;;;;;5008554;28;19918;-83
2022/01/29 09:03:02;;;;;;;;;;;7.60;91.80;;;;;;5014485;28;19972;-82
2022/01/29 09:05:28;;;;;;;;;;;7.70;91.80;;;;;;5008626;28;20376;-83
2022/01/29 09:07:54;;;;;;;;;;;7.70;91.70;;;;;;5017439;28;19925;-82
2022/01/29 09:10:19;;;;;;;;;;;7.60;91.80;;;;;;5028555;28;19922;-81
2022/01/29 09:12:45;;;;;;;;;;;7.70;92.00;;;;;;5013661;28;19981;-83
2022/01/29 09:15:10;;;;;;;;;;;7.80;91.90;;;;;;5017989;28;19917;-82
2022/01/29 09:17:39;;;;;;;;;;;7.80;91.80;;;;;;5030869;28;20009;-80
2022/01/29 09:20:05;;;;;;;;;;;7.80;91.70;;;;;;5019584;28;19921;-82
2022/01/29 09:22:30;;;;;;;;;;;7.80;91.90;;;;;;5006601;28;19976;-81
2022/01/29 09:24:55;;;;;;;;;;;7.70;92.00;;;;;;5006226;28;19920;-81
2022/01/29 09:27:21;;;;;;;;;;;7.70;92.20;;;;;;5006692;28;19921;-83
2022/01/29 09:29:46;;;;;;;;;;;7.80;92.10;;;;;;5010049;28;20387;-82
2022/01/29 09:32:12;;;;;;;;;;;7.80;92.10;;;;;;5011642;28;20364;-82
2022/01/29 09:34:38;;;;;;;;;;;7.80;92.10;;;;;;5006356;28;20033;-81
2022/01/29 09:37:03;;;;;;;;;;;7.80;92.20;;;;;;5013927;28;20012;-81
2022/01/29 09:39:29;;;;;;;;;;;7.90;92.10;;;;;;5013920;28;19913;-82
2022/01/29 09:41:55;;;;;;;;;;;7.90;92.10;;;;;;5016800;28;19913;-81
2022/01/29 09:44:21;;;;;;;;;;;7.90;92.10;;;;;;5010802;28;19921;-82
2022/01/29 09:46:50;;;;;;;;;;;7.90;92.10;;;;;;5012422;28;20360;-83
2022/01/29 09:49:15;;;;;;;;;;;8.00;92.20;;;;;;5013913;28;20007;-81
2022/01/29 09:51:41;;;;;;;;;;;8.00;92.00;;;;;;5008974;28;19984;-81
2022/01/29 09:54:06;;;;;;;;;;;8.10;91.90;;;;;;5012583;28;20403;-80
2022/01/29 09:56:33;;;;;;;;;;;8.00;91.90;;;;;;5015099;28;19991;-81
2022/01/29 09:58:58;;;;;;;;;;;8.10;92.00;;;;;;5016972;28;19980;-81
2022/01/29 10:01:24;;;;;;;;;;;8.10;91.70;;;;;;5030521;28;19917;-81
2022/01/29 10:04:00;;;;;;;;;;;8.20;91.80;;;;;;5015984;28;19944;-81
2022/01/29 10:06:26;;;;;;;;;;;8.10;91.70;;;;;;5016858;28;20415;-83
2022/01/29 10:08:51;;;;;;;;;;;8.10;91.70;;;;;;5017131;28;19921;-81
2022/01/29 10:11:18;;;;;;;;;;;8.20;91.80;;;;;;5013570;28;19980;-80
2022/01/29 10:13:44;;;;;;;;;;;8.30;91.60;;;;;;5015745;28;20040;-79
2022/01/29 10:16:14;;;;;;;;;;;8.30;91.30;;;;;;5006452;28;19961;-80
2022/01/29 10:18:41;;;;;;;;;;;8.30;91.40;;;;;;5015856;28;19921;-83
2022/01/29 10:21:07;;;;;;;;;;;8.30;91.30;;;;;;5013743;28;19932;-82
2022/01/29 10:23:33;;;;;;;;;;;8.30;91.40;;;;;;5006432;28;19920;-83
2022/01/29 10:26:00;;;;;;;;;;;8.40;91.50;;;;;;5011520;28;19913;-82
2022/01/29 10:28:26;;;;;;;;;;;8.30;91.40;;;;;;5021833;28;19921;-80
2022/01/29 10:30:55;;;;;;;;;;;8.30;91.20;;;;;;5011194;28;19913;-80
2022/01/29 10:33:21;;;;;;;;;;;8.30;91.30;;;;;;4997475;28;19999;-83
2022/01/29 10:35:48;;;;;;;;;;;8.40;91.30;;;;;;5010640;28;20362;-82
2022/01/29 10:38:13;;;;;;;;;;;8.40;91.00;;;;;;5016072;28;19913;-81
2022/01/29 10:40:39;;;;;;;;;;;8.40;91.30;;;;;;5012938;28;19914;-84
2022/01/29 10:43:05;;;;;;;;;;;8.40;91.20;;;;;;5015243;28;19917;-83
2022/01/29 10:45:31;;;;;;;;;;;8.40;91.40;;;;;;5013136;28;19921;-83
2022/01/29 10:47:57;;;;;;;;;;;8.50;91.30;;;;;;5020019;28;19981;-79
2022/01/29 10:50:23;;;;;;;;;;;8.50;91.40;;;;;;5023188;28;20004;-79
2022/01/29 10:52:49;;;;;;;;;;;8.50;91.20;;;;;;5012040;28;19921;-81
2022/01/29 10:55:14;;;;;;;;;;;8.60;91.00;;;;;;5011643;28;19917;-80
2022/01/29 10:57:41;;;;;;;;;;;8.60;91.00;;;;;;5013295;28;20609;-82
2022/01/29 11:00:26;;;;;;;;;;;8.60;90.80;;;;;;5010430;28;19947;-81
2022/01/29 11:02:53;;;;;;;;;;;8.60;91.10;;;;;;5013521;28;20005;-82
2022/01/29 11:05:19;;;;;;;;;;;8.60;91.00;;;;;;5010962;28;20110;-83
2022/01/29 11:07:47;;;;;;;;;;;8.50;91.10;;;;;;5025727;28;19924;-83
2022/01/29 11:10:12;;;;;;;;;;;8.50;91.60;;;;;;5022320;28;19932;-82
2022/01/29 11:12:42;;;;;;;;;;;8.50;91.60;;;;;;5011721;28;19914;-81
2022/01/29 11:15:08;;;;;;;;;;;8.60;91.80;;;;;;5012841;28;19913;-81
2022/01/29 11:17:33;;;;;;;;;;;8.50;91.70;;;;;;5010793;28;19917;-79
2022/01/29 11:20:00;;;;;;;;;;;8.60;91.90;;;;;;5008330;28;19952;-82
2022/01/29 11:22:30;;;;;;;;;;;8.60;91.70;;;;;;5023091;28;20010;-80
2022/01/29 11:24:59;;;;;;;;;;;8.60;91.60;;;;;;5005527;28;19925;-81
2022/01/29 11:27:29;;;;;;;;;;;8.60;91.60;;;;;;5010250;28;19980;-82
2022/01/29 11:29:57;;;;;;;;;;;8.60;91.70;;;;;;5017022;28;19993;-81
2022/01/29 11:32:26;;;;;;;;;;;8.70;91.40;;;;;;5013713;28;19948;-79
2022/01/29 11:35:09;;;;;;;;;;;8.70;91.30;;;;;;5016464;28;19971;-79
2022/01/29 11:38:01;;;;;;;;;;;8.80;91.20;;;;;;5012000;28;19918;-78
2022/01/29 11:40:27;;;;;;;;;;;8.70;91.20;;;;;;5021028;28;20289;-80
2022/01/29 11:43:04;;;;;;;;;;;8.80;91.20;;;;;;5016530;28;19967;-79
2022/01/29 11:45:48;;;;;;;;;;;8.80;91.20;;;;;;5019555;28;19918;-81
2022/01/29 11:48:26;;;;;;;;;;;8.70;91.50;;;;;;5015464;28;19913;-82
2022/01/29 11:50:56;;;;;;;;;;;8.80;91.50;;;;;;5013716;28;20013;-82
2022/01/29 11:53:22;;;;;;;;;;;8.70;91.70;;;;;;5007109;28;20081;-82
2022/01/29 11:55:49;;;;;;;;;;;8.70;91.80;;;;;;5004037;28;20498;-80
2022/01/29 11:58:17;;;;;;;;;;;8.80;92.00;;;;;;5012701;28;19924;-82
2022/01/29 12:00:48;;;;;;;;;;;8.90;91.90;;;;;;5007244;28;19921;-82
2022/01/29 12:03:32;;;;;;;;;;;8.90;91.70;;;;;;5025721;28;19921;-83
2022/01/29 12:06:12;;;;;;;;;;;8.90;91.70;;;;;;5008893;28;19918;-82
2022/01/29 12:08:56;;;;;;;;;;;9.00;91.80;;;;;;5007655;28;20333;-83
2022/01/29 12:11:23;;;;;;;;;;;9.10;91.50;;;;;;5011654;28;19949;-83
2022/01/29 12:14:07;;;;;;;;;;;9.20;91.30;;;;;;5009106;28;19926;-82
2022/01/29 12:16:59;;;;;;;;;;;9.30;91.20;;;;;;5018411;28;20013;-80
2022/01/29 12:19:40;;;;;;;;;;;9.40;90.60;;;;;;5018416;28;19921;-81
2022/01/29 12:22:19;;;;;;;;;;;9.50;90.20;;;;;;5013337;28;21880;-81
2022/01/29 12:24:59;;;;;;;;;;;9.40;90.20;;;;;;5028937;28;19918;-81
2022/01/29 12:27:38;;;;;;;;;;;9.30;90.10;;;;;;5009774;28;20004;-81
2022/01/29 12:30:04;;;;;;;;;;;9.40;90.00;;;;;;5019856;28;20387;-80
2022/01/29 12:32:29;;;;;;;;;;;9.40;89.70;;;;;;5014650;28;19918;-82
2022/01/29 12:34:55;;;;;;;;;;;9.40;89.60;;;;;;5011117;28;20012;-81
2022/01/29 12:37:20;;;;;;;;;;;9.40;89.60;;;;;;5032411;28;19917;-80
2022/01/29 12:39:48;;;;;;;;;;;9.40;89.70;;;;;;5013104;28;20035;-80
2022/01/29 12:44:40;;;;;;;;;;;9.40;89.50;;;;;;5013803;28;19909;-80
2022/01/29 12:47:06;;;;;;;;;;;9.50;89.40;;;;;;5011292;28;19945;-80
2022/01/29 12:49:38;;;;;;;;;;;9.50;89.20;;;;;;5010013;28;19917;-80
2022/01/29 12:52:06;;;;;;;;;;;9.40;89.20;;;;;;5008034;28;20353;-79
2022/01/29 12:54:34;;;;;;;;;;;9.50;89.00;;;;;;5026888;28;19917;-81
2022/01/29 12:57:00;;;;;;;;;;;9.50;88.90;;;;;;5012018;28;19917;-80
2022/01/29 12:59:26;;;;;;;;;;;9.50;88.70;;;;;;5009291;28;19946;-80
2022/01/29 13:01:56;;;;;;;;;;;9.60;88.60;;;;;;5008946;28;19917;-80
2022/01/29 13:04:22;;;;;;;;;;;9.50;88.60;;;;;;5009872;28;19921;-80
2022/01/29 13:06:48;;;;;;;;;;;9.50;88.60;;;;;;5015128;28;20366;-80
2022/01/29 13:09:16;;;;;;;;;;;9.50;88.70;;;;;;5027632;28;19925;-78
2022/01/29 13:11:41;;;;;;;;;;;9.50;88.80;;;;;;5017591;28;19914;-78
2022/01/29 13:14:14;;;;;;;;;;;9.50;88.70;;;;;;5015065;28;19956;-79
2022/01/29 13:16:40;;;;;;;;;;;9.50;88.20;;;;;;5009746;28;19926;-79
2022/01/29 13:19:05;;;;;;;;;;;9.60;88.30;;;;;;5010866;28;19913;-80
2022/01/29 13:21:33;;;;;;;;;;;9.60;88.20;;;;;;5027443;28;20023;-82
2022/01/29 13:23:59;;;;;;;;;;;9.60;88.00;;;;;;5030337;28;20309;-81
2022/01/29 13:26:29;;;;;;;;;;;9.60;88.00;;;;;;5013800;28;19925;-81
2022/01/29 13:28:59;;;;;;;;;;;9.70;87.90;;;;;;5015949;28;19924;-81
2022/01/29 13:31:26;;;;;;;;;;;9.70;87.60;;;;;;5017174;28;19913;-80
2022/01/29 13:33:51;;;;;;;;;;;9.70;87.60;;;;;;5014587;28;19913;-82
2022/01/29 13:36:29;;;;;;;;;;;9.70;87.30;;;;;;5011676;28;20405;-82
2022/01/29 13:39:07;;;;;;;;;;;9.80;87.30;;;;;;5010289;28;19921;-83
2022/01/29 13:41:33;;;;;;;;;;;9.80;86.80;;;;;;5014305;28;19924;-82
2022/01/29 13:44:07;;;;;;;;;;;9.80;87.00;;;;;;5015636;28;19921;-82
2022/01/29 13:46:32;;;;;;;;;;;9.80;86.80;;;;;;5008458;28;19913;-82
2022/01/29 13:48:58;;;;;;;;;;;9.80;86.90;;;;;;5026747;28;20002;-82
2022/01/29 13:51:34;;;;;;;;;;;9.80;86.80;;;;;;5014101;28;19914;-84
2022/01/29 13:54:00;;;;;;;;;;;9.80;87.00;;;;;;5016098;28;19913;-82
2022/01/29 13:56:27;;;;;;;;;;;9.80;87.00;;;;;;5009218;28;19917;-82
2022/01/29 13:59:03;;;;;;;;;;;9.80;87.00;;;;;;5015656;28;19928;-81
2022/01/29 14:01:40;;;;;;;;;;;9.80;86.70;;;;;;5008574;28;20467;-81
2022/01/29 14:04:09;;;;;;;;;;;9.80;86.70;;;;;;5013014;28;20010;-80
2022/01/29 14:06:40;;;;;;;;;;;9.90;86.90;;;;;;5018876;28;19956;-83
2022/01/29 14:09:37;;;;;;;;;;;9.80;86.90;;;;;;5023081;28;19952;-80
2022/01/29 14:12:10;;;;;;;;;;;9.80;87.00;;;;;;5024804;28;20303;-81
2022/01/29 14:14:44;;;;;;;;;;;9.80;86.90;;;;;;5017134;28;19921;-80
2022/01/29 14:17:21;;;;;;;;;;;9.80;86.70;;;;;;5018470;28;19921;-83
2022/01/29 14:19:48;;;;;;;;;;;9.90;86.70;;;;;;5017740;28;19944;-80
2022/01/29 14:22:14;;;;;;;;;;;9.90;86.80;;;;;;5015215;28;20005;-84
2022/01/29 14:24:40;;;;;;;;;;;9.90;87.00;;;;;;5016480;28;19928;-80
2022/01/29 14:27:07;;;;;;;;;;;9.90;87.00;;;;;;5030682;28;20364;-82
2022/01/29 14:29:33;;;;;;;;;;;10.00;86.80;;;;;;5028562;28;19918;-81
2022/01/29 14:31:59;;;;;;;;;;;9.90;87.10;;;;;;5018584;28;19913;-83
2022/01/29 14:34:24;;;;;;;;;;;9.90;87.30;;;;;;5015934;28;19913;-81
2022/01/29 14:36:54;;;;;;;;;;;9.80;87.50;;;;;;5016722;28;19922;-82
2022/01/29 14:39:20;;;;;;;;;;;9.80;87.60;;;;;;5021823;28;19917;-82
2022/01/29 14:41:46;;;;;;;;;;;9.80;87.70;;;;;;5018512;28;19914;-82
2022/01/29 14:44:11;;;;;;;;;;;9.80;87.70;;;;;;5017046;28;19922;-82
2022/01/29 14:46:37;;;;;;;;;;;9.80;87.60;;;;;;5019361;28;20297;-82